Gaylordsville, CT (06755)

10:21 AM EDT on March 27, 2017 (GMT -0400)
Sherman - North End | | Change Station
Active Advisory: Special Weather Statement

Elev 722 ft 41.64 °N, 73.51 °W | Updated 3 seconds ago

Rain
Rain
36.9 °F
Feels Like 37 °F
N
0.0
Wind Variable Wind from North
Gusts 0.0 mph

Today
High -- | Low -- °F
--% Chance of Precip.
Yesterday
High -- | Low -- °F
Precip. -- in
Pressure 30.12 in
Visibility 3.0 miles
Clouds Overcast 800 ft
Windchill 37 °F
Dew Point 37 °F
Humidity 100%
Rainfall 0.00 in
Snow Depth Not available.
6:44 AM 7:14 PM
Waning Crescent, 0% visible
METAR KDXR 271353Z 06003KT 3SM RA BR OVC008 03/03 A3011 RMK AO2 SLP198 P0019 T00330033
Pressure 30.12 in
Visibility 3.0 miles
Clouds Overcast 800 ft
Windchill 37 °F
Dew Point 37 °F
Humidity 100%
Rainfall 0.00 in
Snow Depth Not available.
6:44 AM 7:14 PM
Waning Crescent, 0% visible
METAR KDXR 271353Z 06003KT 3SM RA BR OVC008 03/03 A3011 RMK AO2 SLP198 P0019 T00330033

Get Your Daily Forecast Email!

Thanks for signing up!

Be on the lookout for a verification email in your inbox.

You'll start receiving severe weather alerts in your inbox..

×

10-Day Weather Forecast

Almanac

Astronomy

Mar. 27, 2017 Rise Set
Actual Time
Civil Twilight
Nautical Twilight
Astronomical Twilight
Moon
Length of Visible Light
Length of Day
Tomorrow will be .
, % of the Moon is Illuminated

Today's Extremes

State Highs State Lows

Community

WunderPhotos

Upload Photos

1,962,540 photos uploaded!

WunderBlog® & News

Nearby

Air Quality

  Air Quality AQ Index Pollutant
Not available.

Snow Depth

Station Depth Elevation

Earthquake Activity

City Distance Mag. Time & Date
Minimum magnitude displayed is 2.5.

Earthquake Activity

City Distance Mag. Time & Date
Minimum magnitude displayed is 2.5.

Coastal Water Temperatures

Place Temperature

Stations

Nearby Weather Stations

Station Location Temp. Windchill Dew Point Humidity Wind Precip. Elev Updated Type
                   

Watches & Warnings

Special Weather Statement
Issued: 7:20 AM EDT Mar. 27, 2017 – National Weather Service

... Pockets of freezing rain across Litchfield County through mid
morning...

Pockets of freezing rain will remain possible through mid morning
across mainly higher elevations Litchfield County.

Elevations above 1000 feet will be most prone to icy spots, which
may lead to hazardous traveling conditions on untreated surfaces,
bridges and overpasses.

Motorists and pedestrians should exercise caution while traveling
through mid morning. Conditions are expected to improve by late
morning as temperatures rise above freezing.